Time;durP1;ratioP1;P1;durP2;ratioP2;P2;SDS_P1;SDS_P2;PMS_P1;PMS_P2;Temp;Humidity;BMP_temperature;BMP_pressure;BME280_temperature;BME280_humidity;BME280_pressure;Samples;Min_cycle;Max_cycle;Signal;HPM_P1;HPM_P2
2022/02/16 00:00:56;;;;;;;8.70;8.20;;;4.00;99.90;;;;;;5026359;28;20534;-74
2022/02/16 00:03:23;;;;;;;9.00;8.40;;;3.90;99.90;;;;;;5025236;28;20204;-74
2022/02/16 00:05:50;;;;;;;8.57;7.97;;;3.90;99.90;;;;;;5016668;28;20222;-74
2022/02/16 00:08:18;;;;;;;8.00;7.50;;;3.90;99.90;;;;;;5024821;28;20270;-74
2022/02/16 00:10:45;;;;;;;7.73;7.10;;;3.90;99.90;;;;;;5026201;28;20208;-74
2022/02/16 00:13:12;;;;;;;8.30;7.60;;;3.90;99.90;;;;;;5026238;28;20204;-73
2022/02/16 00:15:39;;;;;;;8.33;7.73;;;3.90;99.90;;;;;;5029394;28;20196;-74
2022/02/16 00:18:08;;;;;;;8.10;7.50;;;3.80;99.90;;;;;;5029185;28;20787;-73
2022/02/16 00:20:35;;;;;;;7.80;7.20;;;3.80;99.90;;;;;;5026780;28;20250;-73
2022/02/16 00:23:02;;;;;;;7.57;7.10;;;3.80;99.90;;;;;;5030791;28;20198;-74
2022/02/16 00:25:29;;;;;;;7.37;6.93;;;3.80;99.90;;;;;;5028081;28;20212;-74
2022/02/16 00:27:56;;;;;;;8.20;7.60;;;3.80;99.90;;;;;;5024375;28;20265;-74
2022/02/16 00:30:23;;;;;;;8.20;7.60;;;3.80;99.90;;;;;;5025808;28;20223;-74
2022/02/16 00:32:50;;;;;;;9.47;7.93;;;3.70;99.90;;;;;;5026593;28;20519;-74
2022/02/16 00:35:18;;;;;;;8.20;7.50;;;3.70;99.90;;;;;;5030552;28;20255;-74
2022/02/16 00:37:45;;;;;;;8.37;7.77;;;3.80;99.90;;;;;;5026443;28;20281;-74
2022/02/16 00:40:13;;;;;;;8.20;7.60;;;3.80;99.90;;;;;;5024431;28;20196;-74
2022/02/16 00:42:40;;;;;;;9.00;8.30;;;3.80;99.90;;;;;;5028582;28;20204;-74
2022/02/16 00:45:07;;;;;;;8.20;7.70;;;3.80;99.90;;;;;;5031318;28;20188;-73
2022/02/16 00:47:35;;;;;;;9.00;8.20;;;3.90;99.90;;;;;;5031850;28;20212;-74
2022/02/16 00:50:02;;;;;;;8.47;7.87;;;4.00;99.90;;;;;;5032139;28;20223;-74
2022/02/16 00:52:31;;;;;;;8.43;7.93;;;4.00;99.90;;;;;;5018021;28;20207;-74
2022/02/16 00:54:58;;;;;;;8.73;8.03;;;4.10;99.90;;;;;;5025448;28;20673;-74
2022/02/16 00:57:28;;;;;;;7.70;7.20;;;4.10;99.90;;;;;;5016143;28;20259;-74
2022/02/16 00:59:55;;;;;;;7.43;7.00;;;4.10;99.90;;;;;;5026275;28;20250;-74
2022/02/16 01:02:22;;;;;;;7.40;6.90;;;4.20;99.90;;;;;;5028790;28;20271;-74
2022/02/16 01:04:49;;;;;;;6.93;6.53;;;4.20;99.90;;;;;;5024229;28;20200;-76
2022/02/16 01:07:16;;;;;;;7.50;7.10;;;4.20;99.90;;;;;;5028377;28;20220;-76
2022/02/16 01:09:44;;;;;;;8.23;7.73;;;4.20;99.90;;;;;;5021074;28;20680;-76
2022/02/16 01:12:11;;;;;;;9.50;8.30;;;4.30;99.90;;;;;;5025768;28;20196;-76
2022/02/16 01:14:40;;;;;;;8.50;8.00;;;4.30;99.90;;;;;;5025415;28;20219;-76
2022/02/16 01:17:15;;;;;;;8.10;7.50;;;4.40;99.90;;;;;;5031865;28;20613;-76
2022/02/16 01:19:52;;;;;;;5.67;5.27;;;4.50;99.90;;;;;;5031574;28;20245;-76
2022/02/16 01:22:19;;;;;;;5.60;5.10;;;4.60;99.90;;;;;;5031112;28;20219;-76
2022/02/16 01:24:47;;;;;;;4.50;4.20;;;4.60;99.90;;;;;;5023635;28;20200;-76
2022/02/16 01:27:16;;;;;;;4.27;4.07;;;4.70;99.90;;;;;;5023075;28;20212;-76
2022/02/16 01:29:43;;;;;;;3.80;3.60;;;4.70;99.90;;;;;;5020925;28;20193;-76
2022/02/16 01:32:23;;;;;;;4.63;4.30;;;4.80;99.90;;;;;;5028130;28;20761;-76
2022/02/16 01:34:49;;;;;;;4.73;4.43;;;4.80;99.90;;;;;;5026400;28;20249;-76
2022/02/16 01:37:16;;;;;;;5.53;5.20;;;4.80;99.90;;;;;;5022893;28;20270;-73
2022/02/16 01:39:43;;;;;;;5.13;4.83;;;4.90;99.90;;;;;;5023252;28;20614;-76
2022/02/16 01:42:16;;;;;;;5.90;5.50;;;4.90;99.90;;;;;;5023178;28;20291;-76
2022/02/16 01:44:48;;;;;;;6.23;5.83;;;4.90;99.90;;;;;;5027333;28;20223;-76
2022/02/16 01:47:17;;;;;;;7.10;6.60;;;4.90;99.90;;;;;;5022957;28;20251;-73
2022/02/16 01:49:44;;;;;;;7.40;7.00;;;5.00;99.90;;;;;;5025904;28;20646;-74
2022/02/16 01:52:14;;;;;;;7.37;6.97;;;5.00;99.90;;;;;;5027780;28;20659;-76
2022/02/16 01:54:46;;;;;;;7.53;7.03;;;5.00;99.90;;;;;;5025538;28;20231;-75
2022/02/16 01:57:14;;;;;;;6.37;5.97;;;5.00;99.90;;;;;;5022114;28;20238;-76
2022/02/16 01:59:47;;;;;;;6.00;5.60;;;5.00;99.90;;;;;;5019632;28;20193;-76
2022/02/16 02:02:33;;;;;;;6.40;5.90;;;5.00;99.90;;;;;;5017009;28;20303;-76
2022/02/16 02:05:12;;;;;;;6.70;6.20;;;5.10;99.90;;;;;;5029481;28;20253;-76
2022/02/16 02:07:40;;;;;;;6.80;6.30;;;5.10;99.90;;;;;;5025728;28;20219;-76
2022/02/16 02:10:08;;;;;;;6.93;6.43;;;5.10;99.90;;;;;;5020083;28;20267;-76
2022/02/16 02:12:45;;;;;;;6.67;6.27;;;5.10;99.90;;;;;;5039241;28;20188;-76
2022/02/16 02:15:12;;;;;;;7.07;6.60;;;5.20;99.90;;;;;;5022786;28;20684;-76
2022/02/16 02:17:52;;;;;;;6.70;6.23;;;5.20;99.90;;;;;;5023748;28;20716;-76
2022/02/16 02:20:21;;;;;;;6.87;6.40;;;5.20;99.90;;;;;;5022180;28;20334;-76
2022/02/16 02:22:48;;;;;;;2.33;2.13;;;5.30;99.90;;;;;;5025451;28;20196;-76
2022/02/16 02:25:16;;;;;;;2.23;2.10;;;5.20;99.90;;;;;;5023557;28;20210;-74
2022/02/16 02:27:43;;;;;;;2.60;1.83;;;5.30;99.90;;;;;;5023395;28;20216;-73
2022/02/16 02:30:12;;;;;;;2.30;2.10;;;5.30;99.90;;;;;;5023902;28;20674;-74
2022/02/16 02:32:40;;;;;;;2.30;2.10;;;5.30;99.90;;;;;;5026130;28;20196;-74
2022/02/16 02:35:08;;;;;;;3.40;2.03;;;5.30;99.90;;;;;;5022488;28;20635;-74
2022/02/16 02:37:38;;;;;;;2.10;2.00;;;5.30;99.90;;;;;;5035601;28;20221;-73
2022/02/16 02:40:07;;;;;;;3.57;2.30;;;5.30;99.90;;;;;;5026837;28;20286;-74
2022/02/16 02:42:37;;;;;;;2.47;2.27;;;5.40;99.90;;;;;;5023442;28;20775;-74
2022/02/16 02:45:04;;;;;;;5.67;2.20;;;5.40;99.90;;;;;;5022392;28;20673;-74
2022/02/16 02:47:34;;;;;;;4.20;2.37;;;5.40;99.90;;;;;;5038421;28;20247;-74
2022/02/16 02:50:03;;;;;;;2.10;2.00;;;5.40;99.90;;;;;;5022400;28;20203;-74
2022/02/16 02:52:31;;;;;;;2.17;2.00;;;5.40;99.90;;;;;;5035659;28;20201;-74
2022/02/16 02:55:01;;;;;;;2.40;2.20;;;5.50;99.90;;;;;;5026582;28;20204;-74
2022/02/16 02:57:28;;;;;;;2.93;1.93;;;5.50;99.90;;;;;;5013672;28;20235;-74
2022/02/16 02:59:56;;;;;;;2.20;2.10;;;5.50;99.90;;;;;;5026005;28;20287;-74
2022/02/16 03:02:23;;;;;;;2.77;2.10;;;5.50;99.90;;;;;;5022008;28;20207;-74
2022/02/16 03:04:50;;;;;;;2.23;2.03;;;5.60;99.90;;;;;;5022100;28;20192;-74
2022/02/16 03:07:18;;;;;;;2.20;2.10;;;5.60;99.90;;;;;;5022237;28;20246;-74
2022/02/16 03:09:45;;;;;;;2.03;1.93;;;5.60;99.90;;;;;;5024961;28;20287;-74
2022/02/16 03:12:14;;;;;;;2.20;2.00;;;5.70;99.90;;;;;;5030155;28;20218;-74
2022/02/16 03:14:41;;;;;;;3.00;2.77;;;5.70;99.90;;;;;;5023081;28;20322;-74
2022/02/16 03:17:07;;;;;;;3.17;2.03;;;5.70;99.90;;;;;;5031221;28;20230;-74
2022/02/16 03:19:34;;;;;;;2.17;2.00;;;5.80;99.90;;;;;;5050527;28;20212;-74
2022/02/16 03:22:02;;;;;;;2.37;2.00;;;5.80;99.90;;;;;;5034213;28;20202;-76
2022/02/16 03:24:29;;;;;;;3.07;2.10;;;5.90;99.90;;;;;;5042357;28;20204;-76
2022/02/16 03:26:57;;;;;;;2.00;1.90;;;5.90;99.90;;;;;;5030666;28;20230;-74
2022/02/16 03:29:41;;;;;;;2.20;2.10;;;6.00;99.90;;;;;;5021025;28;20216;-76
2022/02/16 03:32:09;;;;;;;2.37;1.90;;;6.00;99.90;;;;;;5025434;28;20204;-76
2022/02/16 03:34:36;;;;;;;1.97;1.87;;;6.00;99.90;;;;;;5028007;28;20632;-74
2022/02/16 03:37:04;;;;;;;2.00;1.90;;;6.10;99.90;;;;;;5025412;28;20279;-78
2022/02/16 03:39:32;;;;;;;2.33;2.13;;;6.10;99.90;;;;;;5043662;28;20217;-78
2022/02/16 03:42:00;;;;;;;3.20;2.30;;;6.00;99.90;;;;;;5024028;28;20185;-79
2022/02/16 03:44:27;;;;;;;2.33;2.20;;;5.90;99.90;;;;;;5017530;28;20197;-79
2022/02/16 03:46:59;;;;;;;3.60;2.33;;;5.90;99.90;;;;;;5015079;28;20215;-79
2022/02/16 03:49:27;;;;;;;3.83;3.30;;;5.80;99.90;;;;;;5021825;28;20189;-80
2022/02/16 03:51:58;;;;;;;4.57;4.27;;;5.80;99.90;;;;;;5017528;28;20686;-80
2022/02/16 03:54:25;;;;;;;4.00;3.80;;;5.80;99.90;;;;;;5014881;28;20218;-75
2022/02/16 03:56:52;;;;;;;4.27;3.97;;;5.70;99.90;;;;;;5013575;28;20220;-75
2022/02/16 03:59:20;;;;;;;5.73;5.23;;;5.70;99.90;;;;;;5029074;28;20209;-75
2022/02/16 04:02:08;;;;;;;9.20;8.70;;;5.70;99.90;;;;;;5011794;28;20214;-75
2022/02/16 04:04:35;;;;;;;8.87;8.30;;;5.70;99.90;;;;;;5026579;28;20199;-75
2022/02/16 04:07:02;;;;;;;6.30;5.90;;;5.70;99.90;;;;;;5023373;28;20235;-75
2022/02/16 04:09:29;;;;;;;3.97;3.67;;;5.70;99.90;;;;;;5017386;28;20201;-75
2022/02/16 04:11:56;;;;;;;3.93;3.10;;;5.70;99.90;;;;;;5025038;28;20207;-75
2022/02/16 04:14:23;;;;;;;3.30;3.00;;;5.60;99.90;;;;;;5025207;28;20208;-76
2022/02/16 04:16:51;;;;;;;3.53;3.33;;;5.70;99.90;;;;;;5026248;28;20787;-77
2022/02/16 04:19:19;;;;;;;2.33;2.20;;;5.60;99.90;;;;;;5029853;28;20307;-77
2022/02/16 04:21:46;;;;;;;2.83;2.30;;;5.60;99.90;;;;;;5029994;28;20192;-80
2022/02/16 04:24:13;;;;;;;2.30;2.20;;;5.60;99.90;;;;;;5018182;28;20201;-78
2022/02/16 04:26:40;;;;;;;2.63;2.43;;;5.60;99.90;;;;;;5016728;28;20600;-73
2022/02/16 04:29:07;;;;;;;4.77;4.47;;;5.60;99.90;;;;;;5025799;28;20193;-74
2022/02/16 04:31:39;;;;;;;3.80;3.50;;;5.60;99.90;;;;;;5022454;28;20227;-74
2022/02/16 04:34:07;;;;;;;4.17;3.07;;;5.60;99.90;;;;;;5024146;28;20251;-76
2022/02/16 04:36:35;;;;;;;3.77;3.57;;;5.60;99.90;;;;;;5016106;28;20243;-76
2022/02/16 04:39:05;;;;;;;4.80;3.90;;;5.60;99.90;;;;;;5017761;28;20219;-76
2022/02/16 04:41:34;;;;;;;5.93;5.53;;;5.60;99.90;;;;;;5026353;28;20211;-76
2022/02/16 04:44:06;;;;;;;6.30;4.10;;;5.70;99.90;;;;;;5010532;28;20203;-74
2022/02/16 04:46:34;;;;;;;4.73;4.33;;;5.70;99.90;;;;;;5016291;28;20223;-76
2022/02/16 04:49:03;;;;;;;2.67;2.33;;;5.70;99.90;;;;;;5026885;28;20211;-74
2022/02/16 04:51:30;;;;;;;3.57;3.30;;;5.70;99.90;;;;;;5024450;28;20231;-76
2022/02/16 04:53:58;;;;;;;3.93;3.63;;;5.70;99.90;;;;;;5029659;28;20199;-76
2022/02/16 04:56:26;;;;;;;3.47;3.17;;;5.80;99.90;;;;;;5029301;28;20254;-74
2022/02/16 04:58:53;;;;;;;2.60;2.40;;;5.80;99.90;;;;;;5032260;28;20774;-74
2022/02/16 05:01:21;;;;;;;2.10;2.00;;;5.80;99.90;;;;;;5024775;28;20664;-73
2022/02/16 05:03:51;;;;;;;2.00;1.90;;;5.80;99.90;;;;;;5020880;28;20681;-74
2022/02/16 05:06:18;;;;;;;2.33;2.10;;;5.90;99.90;;;;;;5026931;28;20221;-73
2022/02/16 05:08:45;;;;;;;2.43;2.20;;;5.90;99.90;;;;;;5030613;28;20222;-76
2022/02/16 05:11:13;;;;;;;2.20;2.10;;;6.00;99.90;;;;;;5025942;28;20207;-76
2022/02/16 05:13:53;;;;;;;2.20;2.10;;;6.00;99.90;;;;;;5040369;28;20317;-74
2022/02/16 05:16:23;;;;;;;1.93;1.83;;;6.10;99.90;;;;;;5052335;22;20372;-76
2022/02/16 05:18:50;;;;;;;2.43;2.23;;;6.20;99.90;;;;;;5038056;28;20223;-77
2022/02/16 05:21:18;;;;;;;1.90;1.80;;;6.20;99.90;;;;;;5038670;28;20665;-78
2022/02/16 05:23:46;;;;;;;1.90;1.80;;;6.30;99.90;;;;;;5033303;28;20200;-78
2022/02/16 05:26:16;;;;;;;2.27;2.03;;;6.30;99.90;;;;;;5041225;28;20311;-78
2022/02/16 05:28:44;;;;;;;1.90;1.80;;;6.40;99.90;;;;;;5038885;28;20700;-78
2022/02/16 05:31:11;;;;;;;1.90;1.80;;;6.40;99.90;;;;;;5034934;28;20216;-78
2022/02/16 05:33:39;;;;;;;2.00;1.90;;;6.40;99.90;;;;;;5034631;28;20239;-78
2022/02/16 05:36:11;;;;;;;2.30;1.80;;;6.50;99.90;;;;;;5031799;28;20200;-76
2022/02/16 05:38:38;;;;;;;2.00;1.90;;;6.50;99.90;;;;;;5042364;28;20223;-78
2022/02/16 05:41:05;;;;;;;3.23;3.03;;;6.60;99.90;;;;;;5033243;28;20234;-79
2022/02/16 05:43:36;;;;;;;2.87;2.77;;;6.60;99.90;;;;;;5044868;28;20684;-80
2022/02/16 05:46:06;;;;;;;2.77;2.67;;;6.60;99.90;;;;;;5021383;28;20305;-79
2022/02/16 05:48:33;;;;;;;2.20;2.03;;;6.60;99.90;;;;;;5031057;28;20614;-80
2022/02/16 05:51:00;;;;;;;2.50;2.10;;;6.50;99.90;;;;;;5031437;28;20201;-79
2022/02/16 05:53:28;;;;;;;2.37;2.17;;;6.50;99.90;;;;;;5039603;28;20209;-79
2022/02/16 05:55:55;;;;;;;2.27;2.10;;;6.50;99.90;;;;;;5038840;28;20594;-78
2022/02/16 05:58:22;;;;;;;2.10;2.00;;;6.50;99.90;;;;;;5037334;28;20310;-80
2022/02/16 06:00:50;;;;;;;2.50;2.30;;;6.50;99.90;;;;;;5020528;28;20304;-77
2022/02/16 06:03:44;;;;;;;2.93;2.50;;;6.50;99.90;;;;;;5018553;28;20258;-77
2022/02/16 06:06:12;;;;;;;3.00;2.80;;;6.50;99.90;;;;;;5024714;28;20465;-78
2022/02/16 06:08:39;;;;;;;8.20;7.70;;;6.50;99.90;;;;;;5028922;28;20196;-79
2022/02/16 06:11:10;;;;;;;8.57;7.97;;;6.40;99.90;;;;;;5030798;28;20205;-78
2022/02/16 06:13:37;;;;;;;8.83;8.33;;;6.40;99.90;;;;;;5033453;28;20200;-78
2022/02/16 06:16:06;;;;;;;3.07;2.77;;;6.50;99.90;;;;;;5034679;28;20201;-78
2022/02/16 06:18:34;;;;;;;2.67;2.47;;;6.40;99.90;;;;;;5038022;28;20197;-79
2022/02/16 06:21:01;;;;;;;5.83;5.43;;;6.50;99.90;;;;;;5033874;28;20609;-78
2022/02/16 06:23:28;;;;;;;5.03;4.63;;;6.50;99.90;;;;;;5043321;28;20293;-77
2022/02/16 06:25:55;;;;;;;3.27;3.03;;;6.40;99.90;;;;;;5036369;28;20203;-77
2022/02/16 06:28:23;;;;;;;3.43;3.23;;;6.40;99.90;;;;;;5035915;28;20598;-77
2022/02/16 06:30:52;;;;;;;4.50;3.37;;;6.50;99.90;;;;;;5037524;28;20207;-77
2022/02/16 06:33:22;;;;;;;4.00;3.80;;;6.50;99.90;;;;;;5040261;28;20273;-77
2022/02/16 06:35:49;;;;;;;5.03;4.83;;;6.60;99.90;;;;;;5041218;28;20227;-77
2022/02/16 06:38:17;;;;;;;8.10;7.70;;;6.60;99.90;;;;;;5035521;28;20239;-80
2022/02/16 06:40:46;;;;;;;8.80;8.30;;;6.70;99.90;;;;;;5026256;28;20226;-83
2022/02/16 06:43:15;;;;;;;8.80;8.30;;;6.70;99.90;;;;;;5032417;28;20202;-80
2022/02/16 06:45:42;;;;;;;3.47;3.27;;;6.70;99.90;;;;;;5039350;28;20205;-79
2022/02/16 06:48:09;;;;;;;2.90;2.70;;;6.80;99.90;;;;;;5035952;28;20641;-77
2022/02/16 06:50:38;;;;;;;4.60;4.40;;;6.80;99.90;;;;;;5039244;28;20205;-77
2022/02/16 06:53:09;;;;;;;8.00;7.50;;;6.80;99.90;;;;;;5036688;28;20217;-81
2022/02/16 06:55:37;;;;;;;7.87;7.47;;;6.90;99.90;;;;;;5033738;28;20201;-78
2022/02/16 06:58:05;;;;;;;8.73;8.23;;;6.90;99.90;;;;;;5037750;28;20232;-77
2022/02/16 07:00:32;;;;;;;4.13;3.90;;;6.90;99.90;;;;;;5032904;28;20303;-77
2022/02/16 07:02:59;;;;;;;1.80;1.80;;;7.00;99.90;;;;;;5023764;28;20285;-77
2022/02/16 07:05:48;;;;;;;2.07;1.97;;;7.00;99.90;;;;;;5027615;28;20194;-77
2022/02/16 07:08:21;;;;;;;1.93;1.83;;;7.00;99.90;;;;;;5041356;28;20263;-77
2022/02/16 07:10:48;;;;;;;2.10;2.00;;;7.10;99.90;;;;;;5030035;28;20202;-77
2022/02/16 07:13:15;;;;;;;2.20;1.70;;;7.10;99.90;;;;;;5034921;28;20568;-77
2022/02/16 07:15:43;;;;;;;2.00;1.90;;;7.10;99.90;;;;;;5045061;28;20205;-77
2022/02/16 07:18:10;;;;;;;2.60;2.40;;;7.10;99.90;;;;;;5032481;28;20640;-78
2022/02/16 07:20:49;;;;;;;2.40;2.23;;;7.10;99.90;;;;;;5034924;28;20740;-77
2022/02/16 07:23:19;;;;;;;2.33;2.13;;;7.20;99.90;;;;;;5036109;28;20313;-77
2022/02/16 07:25:46;;;;;;;1.90;1.80;;;7.20;99.90;;;;;;5035894;28;20205;-77
2022/02/16 07:28:15;;;;;;;2.10;1.97;;;7.20;99.90;;;;;;5036808;28;20215;-77
2022/02/16 07:30:45;;;;;;;2.03;1.90;;;7.20;99.90;;;;;;5025963;28;20209;-78
2022/02/16 07:33:12;;;;;;;2.60;2.40;;;7.30;99.90;;;;;;5035600;28;20509;-78
2022/02/16 07:35:39;;;;;;;2.57;2.40;;;7.30;99.90;;;;;;5036929;28;20202;-78
2022/02/16 07:38:08;;;;;;;2.40;2.20;;;7.30;99.90;;;;;;5027927;28;20275;-78
2022/02/16 07:40:36;;;;;;;4.03;3.83;;;7.40;99.90;;;;;;5037455;28;20723;-78
2022/02/16 07:43:03;;;;;;;5.07;4.83;;;7.40;99.90;;;;;;5033358;28;20205;-78
2022/02/16 07:46:03;;;;;;;3.43;3.13;;;7.40;99.90;;;;;;5006998;28;20587;-78
2022/02/16 07:48:33;;;;;;;5.07;4.77;;;7.40;99.90;;;;;;5025406;28;20207;-77
2022/02/16 07:51:09;;;;;;;4.63;4.43;;;7.50;99.90;;;;;;5038921;28;20198;-78
2022/02/16 07:53:56;;;;;;;5.17;4.77;;;7.50;99.90;;;;;;5020189;28;20216;-78
2022/02/16 07:56:24;;;;;;;2.30;2.20;;;7.50;99.90;;;;;;5030179;28;20223;-78
2022/02/16 07:58:52;;;;;;;3.70;3.50;;;7.50;99.90;;;;;;5025756;28;20230;-77
2022/02/16 08:01:19;;;;;;;2.40;2.20;;;7.60;99.90;;;;;;5045406;28;20772;-78
2022/02/16 08:03:46;;;;;;;5.07;4.87;;;7.60;99.90;;;;;;5029614;28;20204;-78
2022/02/16 08:06:14;;;;;;;7.73;7.27;;;7.70;99.90;;;;;;5025211;28;20723;-79
2022/02/16 08:08:42;;;;;;;1.90;1.80;;;7.70;99.90;;;;;;5042232;28;20199;-78
2022/02/16 08:11:10;;;;;;;1.80;1.80;;;7.70;99.90;;;;;;5036246;28;20242;-78
2022/02/16 08:13:37;;;;;;;6.80;6.50;;;7.80;99.90;;;;;;5035580;28;20751;-78
2022/02/16 08:16:11;;;;;;;2.00;1.90;;;7.80;99.90;;;;;;5044009;28;20232;-80
2022/02/16 08:18:47;;;;;;;2.00;1.90;;;7.90;99.90;;;;;;5042687;28;20191;-79
2022/02/16 08:21:15;;;;;;;2.00;1.90;;;8.00;99.90;;;;;;5045912;28;20230;-78
2022/02/16 08:23:46;;;;;;;7.43;7.03;;;8.10;99.90;;;;;;5044272;28;20187;-78
2022/02/16 08:26:14;;;;;;;7.27;6.97;;;8.20;99.90;;;;;;5039555;28;20234;-77
2022/02/16 08:28:41;;;;;;;6.33;6.03;;;8.20;99.90;;;;;;5037877;28;20187;-77
2022/02/16 08:31:08;;;;;;;6.30;6.00;;;8.20;99.90;;;;;;5040798;28;20202;-78
2022/02/16 08:34:06;;;;;;;5.70;5.40;;;8.20;99.90;;;;;;5028600;28;20207;-77
2022/02/16 08:36:43;;;;;;;6.70;6.40;;;8.30;99.90;;;;;;5026999;28;20278;-77
2022/02/16 08:39:11;;;;;;;8.80;8.30;;;8.20;99.90;;;;;;5039652;28;20195;-77
2022/02/16 08:41:39;;;;;;;8.20;7.80;;;8.20;99.90;;;;;;5041630;28;20690;-77
2022/02/16 08:44:06;;;;;;;8.00;7.60;;;8.20;99.90;;;;;;5032330;28;20669;-77
2022/02/16 08:46:33;;;;;;;7.70;7.20;;;8.30;99.90;;;;;;5045395;28;20510;-77
2022/02/16 08:49:01;;;;;;;7.57;7.17;;;8.30;99.90;;;;;;5031690;28;20610;-78
2022/02/16 08:51:28;;;;;;;7.00;6.60;;;8.20;99.90;;;;;;5034567;28;20192;-79
2022/02/16 08:53:55;;;;;;;7.90;7.50;;;8.20;99.90;;;;;;5034503;28;20197;-77
2022/02/16 08:56:22;;;;;;;8.90;8.40;;;8.30;99.90;;;;;;5036414;28;20220;-79
2022/02/16 08:58:50;;;;;;;8.93;8.43;;;8.30;99.90;;;;;;5038916;28;20650;-76
2022/02/16 09:01:17;;;;;;;9.10;8.60;;;8.40;99.90;;;;;;5035629;28;20250;-78
2022/02/16 09:03:44;;;;;;;9.67;9.17;;;8.30;99.90;;;;;;5042694;28;20580;-77
2022/02/16 09:06:11;;;;;;;9.17;8.67;;;8.30;99.90;;;;;;5040662;28;20692;-79
2022/02/16 09:08:38;;;;;;;9.47;8.97;;;8.30;99.90;;;;;;5045209;28;20231;-77
2022/02/16 09:11:05;;;;;;;9.00;8.50;;;8.30;99.90;;;;;;5036212;28;20242;-77
2022/02/16 09:13:32;;;;;;;9.30;8.80;;;8.30;99.90;;;;;;5039094;28;20198;-78
2022/02/16 09:16:00;;;;;;;9.40;8.90;;;8.30;99.90;;;;;;5041888;28;20210;-77
2022/02/16 09:18:27;;;;;;;9.70;9.20;;;8.30;99.90;;;;;;5044662;28;20679;-77
2022/02/16 09:20:54;;;;;;;9.70;9.13;;;8.20;99.90;;;;;;5037011;28;20866;-77
2022/02/16 09:23:20;;;;;;;9.60;9.10;;;8.20;99.90;;;;;;5023461;28;20212;-77
2022/02/16 09:25:47;;;;;;;5.70;5.40;;;8.20;99.90;;;;;;5026301;28;20678;-75
2022/02/16 09:28:15;;;;;;;4.10;3.90;;;8.20;99.90;;;;;;5028385;28;20211;-76
2022/02/16 09:30:42;;;;;;;4.20;4.00;;;8.30;99.90;;;;;;5027242;28;20196;-77
2022/02/16 09:33:10;;;;;;;4.30;4.10;;;8.30;99.90;;;;;;5028950;28;20199;-75
2022/02/16 09:35:39;;;;;;;4.40;4.20;;;8.40;99.90;;;;;;5021786;28;20200;-76
2022/02/16 09:38:06;;;;;;;4.67;4.47;;;8.40;99.90;;;;;;5026046;28;20219;-76
2022/02/16 09:40:33;;;;;;;4.20;4.00;;;8.60;99.90;;;;;;5028609;28;20231;-76
2022/02/16 09:43:02;;;;;;;4.57;4.37;;;8.60;99.90;;;;;;5028192;28;20582;-78
2022/02/16 09:45:30;;;;;;;6.50;6.20;;;8.60;99.90;;;;;;5020366;28;20214;-75
2022/02/16 09:47:57;;;;;;;8.53;8.13;;;8.70;99.90;;;;;;5022299;28;20215;-75
2022/02/16 09:50:26;;;;;;;9.30;8.80;;;8.70;99.90;;;;;;5028228;28;20184;-76
2022/02/16 09:52:53;;;;;;;8.30;7.90;;;8.70;99.90;;;;;;5033583;28;20195;-77
2022/02/16 09:55:19;;;;;;;9.83;9.33;;;8.80;99.90;;;;;;5038073;28;20253;-75
2022/02/16 09:57:46;;;;;;;8.80;8.30;;;8.80;99.90;;;;;;5039088;28;20660;-75
2022/02/16 10:00:15;;;;;;;8.50;8.10;;;8.90;99.90;;;;;;5042533;28;20215;-75
2022/02/16 10:02:44;;;;;;;8.10;7.70;;;8.90;99.90;;;;;;5029222;28;20208;-75
2022/02/16 10:05:13;;;;;;;7.40;7.00;;;8.90;99.90;;;;;;5041697;28;20290;-74
2022/02/16 10:07:43;;;;;;;6.20;5.90;;;9.00;99.90;;;;;;5021409;28;20290;-77
2022/02/16 10:10:16;;;;;;;8.60;8.20;;;9.00;99.90;;;;;;5025215;28;20205;-74
2022/02/16 10:12:46;;;;;;;8.40;7.90;;;9.10;99.90;;;;;;5021618;28;20212;-76
2022/02/16 10:15:14;;;;;;;10.10;9.60;;;9.10;99.90;;;;;;5021170;28;20215;-76
2022/02/16 10:17:41;;;;;;;10.00;9.50;;;9.20;99.90;;;;;;5023286;28;20246;-77
2022/02/16 10:20:11;;;;;;;9.27;8.77;;;9.30;99.90;;;;;;5031382;28;20222;-76
2022/02/16 10:22:48;;;;;;;8.90;8.43;;;9.30;99.90;;;;;;5028113;28;20617;-76
2022/02/16 10:25:17;;;;;;;9.20;8.70;;;9.30;99.90;;;;;;5022713;28;20278;-75
2022/02/16 10:28:12;;;;;;;9.30;8.80;;;9.30;99.90;;;;;;5024727;28;20605;-75
2022/02/16 10:30:42;;;;;;;9.10;8.60;;;9.40;99.90;;;;;;5024718;28;20194;-76
2022/02/16 10:33:21;;;;;;;10.17;9.67;;;9.50;99.90;;;;;;5022949;28;20199;-76
2022/02/16 10:35:50;;;;;;;8.63;8.07;;;9.50;99.90;;;;;;5022923;28;20203;-76
2022/02/16 10:38:18;;;;;;;3.83;3.63;;;9.60;99.90;;;;;;5021549;28;20584;-79
2022/02/16 10:41:00;;;;;;;7.90;7.50;;;9.60;99.90;;;;;;5023005;28;20212;-77
2022/02/16 10:43:32;;;;;;;8.30;7.90;;;9.80;99.90;;;;;;5027782;28;20195;-80
2022/02/16 10:45:59;;;;;;;8.57;8.07;;;9.80;99.90;;;;;;5036977;28;20675;-77
2022/02/16 10:48:26;;;;;;;8.60;8.20;;;9.80;99.90;;;;;;5036028;28;20256;-77
2022/02/16 10:50:53;;;;;;;8.70;8.30;;;9.90;99.90;;;;;;5041594;28;20191;-78
2022/02/16 10:53:30;;;;;;;8.27;7.87;;;9.90;99.90;;;;;;5035041;28;20219;-76
2022/02/16 10:55:57;;;;;;;6.47;6.17;;;9.90;99.90;;;;;;5032720;28;20203;-79
2022/02/16 10:58:27;;;;;;;7.97;7.53;;;10.00;99.90;;;;;;5038773;28;20297;-79
2022/02/16 11:00:57;;;;;;;8.17;7.77;;;10.10;99.90;;;;;;5036420;28;20596;-76
2022/02/16 11:03:29;;;;;;;8.57;8.07;;;10.20;99.90;;;;;;5037963;28;20270;-76
2022/02/16 11:05:59;;;;;;;3.70;3.50;;;10.30;99.90;;;;;;5037755;28;20283;-76
2022/02/16 11:08:30;;;;;;;8.47;8.00;;;10.50;99.90;;;;;;5039058;28;20191;-76
2022/02/16 11:11:00;;;;;;;8.60;8.20;;;10.60;99.90;;;;;;5035635;28;20203;-77
2022/02/16 11:13:27;;;;;;;8.90;8.40;;;10.80;99.90;;;;;;5036057;28;20203;-77
2022/02/16 11:15:54;;;;;;;8.70;8.20;;;11.00;99.90;;;;;;5041450;28;20211;-76
2022/02/16 11:18:23;;;;;;;8.60;8.20;;;11.00;99.90;;;;;;5058424;22;20231;-74
2022/02/16 11:21:08;;;;;;;8.03;7.63;;;11.10;99.90;;;;;;5030387;28;20312;-75
2022/02/16 11:23:42;;;;;;;8.70;8.30;;;11.20;99.90;;;;;;5028350;28;20621;-75
2022/02/16 11:26:37;;;;;;;8.70;8.30;;;11.30;99.90;;;;;;5033615;28;20200;-75
2022/02/16 11:29:10;;;;;;;8.73;8.33;;;11.30;99.90;;;;;;5014762;28;20554;-75
2022/02/16 11:31:39;;;;;;;9.10;8.60;;;11.30;99.90;;;;;;5014668;28;20747;-74
2022/02/16 11:34:20;;;;;;;8.03;7.63;;;11.30;99.90;;;;;;5015704;28;20701;-76
2022/02/16 11:36:50;;;;;;;8.17;7.77;;;11.30;99.90;;;;;;5016306;28;20645;-76
2022/02/16 11:39:53;;;;;;;8.00;7.60;;;11.20;99.90;;;;;;5017213;28;20261;-76
2022/02/16 11:42:23;;;;;;;8.30;7.90;;;11.10;99.90;;;;;;5008885;28;20782;-76
2022/02/16 11:45:04;;;;;;;8.00;7.60;;;11.10;99.90;;;;;;5018556;28;20205;-76
2022/02/16 11:47:53;;;;;;;8.90;8.40;;;11.20;99.90;;;;;;5018194;28;20285;-76
2022/02/16 11:50:47;;;;;;;9.07;8.57;;;11.20;99.90;;;;;;5015856;28;20202;-74
2022/02/16 11:53:14;;;;;;;8.40;7.90;;;11.30;99.90;;;;;;4979574;28;20215;-75
2022/02/16 11:55:44;;;;;;;8.50;8.10;;;11.40;99.90;;;;;;5020351;28;20206;-76
2022/02/16 11:58:22;;;;;;;8.20;7.80;;;11.40;99.90;;;;;;5019802;28;20224;-76
2022/02/16 12:01:08;;;;;;;8.23;7.80;;;11.40;99.90;;;;;;5017069;28;20275;-76
2022/02/16 12:03:51;;;;;;;8.63;8.03;;;11.40;99.90;;;;;;5016051;28;20634;-76
2022/02/16 12:06:22;;;;;;;7.97;7.57;;;11.50;99.90;;;;;;5022855;28;20206;-77
2022/02/16 12:09:07;;;;;;;8.20;7.70;;;11.50;99.90;;;;;;5016684;28;20647;-76
2022/02/16 12:11:35;;;;;;;7.90;7.50;;;11.60;99.90;;;;;;5012955;28;20222;-77
2022/02/16 12:14:05;;;;;;;8.10;7.70;;;11.60;99.90;;;;;;5018044;28;20214;-76
2022/02/16 12:16:34;;;;;;;8.63;8.23;;;11.70;99.90;;;;;;5009223;28;20203;-76
2022/02/16 12:19:03;;;;;;;8.20;7.80;;;11.80;99.90;;;;;;5015923;28;20258;-76
2022/02/16 12:21:32;;;;;;;8.47;8.07;;;11.80;99.90;;;;;;5017199;28;20646;-76
2022/02/16 12:24:01;;;;;;;8.60;8.20;;;11.80;99.90;;;;;;5018783;28;20267;-76
2022/02/16 12:26:36;;;;;;;8.70;8.30;;;11.90;99.90;;;;;;5018374;28;20278;-77
2022/02/16 12:29:07;;;;;;;8.40;8.00;;;11.90;99.90;;;;;;5021261;28;20200;-76
2022/02/16 12:31:36;;;;;;;8.87;8.37;;;11.80;99.90;;;;;;5021603;28;20610;-76
2022/02/16 12:34:07;;;;;;;8.60;8.20;;;11.80;99.90;;;;;;5021287;28;20200;-76
2022/02/16 12:36:38;;;;;;;8.50;8.00;;;11.70;99.90;;;;;;5019339;28;20201;-76
2022/02/16 12:39:07;;;;;;;8.40;7.90;;;11.70;99.90;;;;;;5017533;28;20262;-77
2022/02/16 12:41:35;;;;;;;8.13;7.73;;;11.80;99.90;;;;;;5020973;28;20207;-77
2022/02/16 12:44:05;;;;;;;8.37;7.97;;;11.70;99.90;;;;;;5022125;28;20196;-76
2022/02/16 12:46:34;;;;;;;8.10;7.70;;;11.70;99.90;;;;;;5007915;28;20631;-76
2022/02/16 12:49:04;;;;;;;8.60;8.20;;;11.70;99.90;;;;;;5022086;28;20247;-76
2022/02/16 12:51:33;;;;;;;8.00;7.60;;;11.60;99.90;;;;;;5025902;28;20224;-76
2022/02/16 12:54:07;;;;;;;8.30;7.80;;;11.60;99.90;;;;;;5016969;28;20641;-76
2022/02/16 12:56:36;;;;;;;7.60;7.20;;;11.60;99.90;;;;;;5014897;28;20199;-78
2022/02/16 12:59:16;;;;;;;7.70;7.30;;;11.60;99.90;;;;;;5015597;28;20237;-79
2022/02/16 13:01:43;;;;;;;7.80;7.40;;;11.60;99.90;;;;;;5013334;28;20238;-79
2022/02/16 13:04:10;;;;;;;8.70;8.10;;;11.60;99.90;;;;;;5011775;28;20206;-81
2022/02/16 13:06:39;;;;;;;8.43;8.00;;;11.60;99.90;;;;;;5015190;28;20211;-79
2022/02/16 13:09:07;;;;;;;8.07;7.67;;;11.70;99.90;;;;;;5022600;28;20258;-78